createdAt,value
2023-08-13T00:01:40.581Z,100.00
2023-08-13T00:04:07.578Z,100.00
2023-08-13T00:06:34.385Z,100.00
2023-08-13T00:09:01.302Z,100.00
2023-08-13T00:11:28.122Z,100.00
2023-08-13T00:13:54.930Z,100.00
2023-08-13T00:16:21.727Z,100.00
2023-08-13T00:18:48.531Z,100.00
2023-08-13T00:21:15.308Z,100.00
2023-08-13T00:23:42.138Z,100.00
2023-08-13T00:26:08.862Z,100.00
2023-08-13T00:28:35.662Z,100.00
2023-08-13T00:31:02.596Z,100.00
2023-08-13T00:33:29.559Z,100.00
2023-08-13T00:35:56.369Z,100.00
2023-08-13T00:38:23.183Z,100.00
2023-08-13T00:40:49.999Z,100.00
2023-08-13T00:43:16.757Z,100.00
2023-08-13T00:45:44.306Z,100.00
2023-08-13T00:48:11.286Z,100.00
2023-08-13T00:50:39.046Z,100.00
2023-08-13T00:53:07.416Z,100.00
2023-08-13T00:55:34.820Z,100.00
2023-08-13T00:58:02.488Z,100.00
2023-08-13T01:00:29.356Z,100.00
2023-08-13T01:02:57.421Z,100.00
2023-08-13T01:05:33.841Z,100.00
2023-08-13T01:08:11.933Z,100.00
2023-08-13T01:10:41.181Z,100.00
2023-08-13T01:13:32.387Z,100.00
2023-08-13T01:16:00.463Z,100.00
2023-08-13T01:18:29.324Z,100.00
2023-08-13T01:20:56.208Z,100.00
2023-08-13T01:23:22.956Z,100.00
2023-08-13T01:25:57.916Z,100.00
2023-08-13T01:28:37.775Z,100.00
2023-08-13T01:31:24.366Z,100.00
2023-08-13T01:33:53.537Z,100.00
2023-08-13T01:36:21.190Z,100.00
2023-08-13T01:38:48.502Z,100.00
2023-08-13T01:41:15.559Z,100.00
2023-08-13T01:43:42.481Z,100.00
2023-08-13T01:46:09.368Z,100.00
2023-08-13T01:48:36.494Z,100.00
2023-08-13T01:51:03.243Z,100.00
2023-08-13T01:53:30.135Z,100.00
2023-08-13T01:55:57.787Z,100.00
2023-08-13T01:58:24.622Z,100.00
2023-08-13T02:00:51.557Z,100.00
2023-08-13T02:03:18.620Z,100.00
2023-08-13T02:05:45.374Z,100.00
2023-08-13T02:08:12.262Z,100.00
2023-08-13T02:10:39.061Z,100.00
2023-08-13T02:13:07.356Z,100.00
2023-08-13T02:15:34.206Z,100.00
2023-08-13T02:18:01.268Z,100.00
2023-08-13T02:20:29.726Z,100.00
2023-08-13T02:22:57.349Z,100.00
2023-08-13T02:25:24.129Z,100.00
2023-08-13T02:27:51.108Z,100.00
2023-08-13T02:30:18.140Z,100.00
2023-08-13T02:32:44.942Z,100.00
2023-08-13T02:35:11.900Z,100.00
2023-08-13T02:37:38.813Z,100.00
2023-08-13T02:40:07.734Z,100.00
2023-08-13T02:42:34.852Z,100.00
2023-08-13T02:45:01.639Z,100.00
2023-08-13T02:47:29.767Z,100.00
2023-08-13T02:49:56.596Z,100.00
2023-08-13T02:52:23.366Z,100.00
2023-08-13T02:54:50.133Z,100.00
2023-08-13T02:57:16.899Z,100.00
2023-08-13T02:59:43.683Z,100.00
2023-08-13T03:02:10.660Z,100.00
2023-08-13T03:04:37.689Z,100.00
2023-08-13T03:07:04.483Z,100.00
2023-08-13T03:09:31.622Z,100.00
2023-08-13T03:11:58.571Z,100.00
2023-08-13T03:14:25.555Z,100.00
2023-08-13T03:16:52.601Z,100.00
2023-08-13T03:19:19.935Z,100.00
2023-08-13T03:21:46.796Z,100.00
2023-08-13T03:24:13.779Z,100.00
2023-08-13T03:26:41.818Z,100.00
2023-08-13T03:29:08.682Z,100.00
2023-08-13T03:31:35.515Z,100.00
2023-08-13T03:34:13.662Z,100.00
2023-08-13T03:36:40.764Z,100.00
2023-08-13T03:39:07.477Z,100.00
2023-08-13T03:41:34.339Z,100.00
2023-08-13T03:44:01.089Z,100.00
2023-08-13T03:46:27.837Z,100.00
2023-08-13T03:48:54.617Z,100.00
2023-08-13T03:51:24.430Z,100.00
2023-08-13T03:53:52.213Z,100.00
2023-08-13T03:56:20.195Z,100.00
2023-08-13T03:58:47.035Z,100.00
2023-08-13T04:01:16.394Z,100.00
2023-08-13T04:03:45.041Z,100.00
2023-08-13T04:06:12.014Z,100.00
2023-08-13T04:08:38.908Z,100.00
2023-08-13T04:11:05.945Z,100.00
2023-08-13T04:13:33.230Z,100.00
2023-08-13T04:16:00.106Z,100.00
2023-08-13T04:18:27.765Z,100.00
2023-08-13T04:20:55.796Z,100.00
2023-08-13T04:23:22.676Z,100.00
2023-08-13T04:25:50.015Z,100.00
2023-08-13T04:28:17.074Z,100.00
2023-08-13T04:30:46.136Z,100.00
2023-08-13T04:33:12.987Z,100.00
2023-08-13T04:35:40.034Z,100.00
2023-08-13T04:38:07.326Z,100.00
2023-08-13T04:40:39.107Z,100.00
2023-08-13T04:43:06.619Z,100.00
2023-08-13T04:45:33.698Z,100.00
2023-08-13T04:48:00.619Z,100.00
2023-08-13T04:50:27.440Z,100.00
2023-08-13T04:52:54.184Z,100.00
2023-08-13T04:55:21.073Z,100.00
2023-08-13T04:57:47.864Z,100.00
2023-08-13T05:00:15.839Z,100.00
2023-08-13T05:02:45.696Z,100.00
2023-08-13T05:05:12.562Z,100.00
2023-08-13T05:07:39.771Z,100.00
2023-08-13T05:10:07.251Z,100.00
2023-08-13T05:12:34.412Z,100.00
2023-08-13T05:15:01.587Z,100.00
2023-08-13T05:17:29.189Z,100.00
2023-08-13T05:19:55.951Z,100.00
2023-08-13T05:22:22.677Z,100.00
2023-08-13T05:24:49.686Z,100.00
2023-08-13T05:27:17.793Z,100.00
2023-08-13T05:29:44.880Z,100.00
2023-08-13T05:32:11.959Z,100.00
2023-08-13T05:34:38.960Z,100.00
2023-08-13T05:37:06.816Z,100.00
2023-08-13T05:39:34.409Z,100.00
2023-08-13T05:42:01.128Z,100.00
2023-08-13T05:44:27.929Z,100.00
2023-08-13T05:46:55.346Z,100.00
2023-08-13T05:49:22.145Z,100.00
2023-08-13T05:51:49.745Z,100.00
2023-08-13T05:54:17.177Z,100.00
2023-08-13T05:56:43.989Z,100.00
2023-08-13T05:59:10.946Z,100.00
2023-08-13T06:01:37.638Z,100.00
2023-08-13T06:04:04.706Z,100.00
2023-08-13T06:06:31.768Z,100.00
2023-08-13T06:08:58.732Z,100.00
2023-08-13T06:11:25.459Z,100.00
2023-08-13T06:13:52.421Z,100.00
2023-08-13T06:16:19.445Z,100.00
2023-08-13T06:18:46.257Z,100.00
2023-08-13T06:21:13.326Z,100.00
2023-08-13T06:23:40.423Z,100.00
2023-08-13T06:26:07.819Z,100.00
2023-08-13T06:28:35.194Z,100.00
2023-08-13T06:31:03.192Z,100.00
2023-08-13T06:33:30.068Z,100.00
2023-08-13T06:35:56.868Z,100.00
2023-08-13T06:38:25.456Z,100.00
2023-08-13T06:40:52.403Z,100.00
2023-08-13T06:43:19.210Z,100.00
2023-08-13T06:45:47.293Z,100.00
2023-08-13T06:48:14.318Z,100.00
2023-08-13T06:50:41.212Z,100.00
2023-08-13T06:53:08.049Z,100.00
2023-08-13T06:55:34.783Z,100.00
2023-08-13T06:58:01.497Z,100.00
2023-08-13T07:00:38.424Z,100.00
2023-08-13T07:03:06.485Z,100.00
2023-08-13T07:05:33.369Z,100.00
2023-08-13T07:08:00.270Z,100.00
2023-08-13T07:10:27.073Z,100.00
2023-08-13T07:12:53.843Z,100.00
2023-08-13T07:15:20.551Z,100.00
2023-08-13T07:17:47.321Z,100.00
2023-08-13T07:20:15.541Z,100.00
2023-08-13T07:22:47.085Z,100.00
2023-08-13T07:25:14.576Z,100.00
2023-08-13T07:27:43.508Z,100.00
2023-08-13T07:30:12.170Z,100.00
2023-08-13T07:32:44.275Z,100.00
2023-08-13T07:35:14.290Z,100.00
2023-08-13T07:37:41.327Z,100.00
2023-08-13T07:40:09.322Z,100.00
2023-08-13T07:42:38.476Z,100.00
2023-08-13T07:45:07.426Z,100.00
2023-08-13T07:47:37.530Z,100.00
2023-08-13T07:50:05.919Z,100.00
2023-08-13T07:52:35.322Z,100.00
2023-08-13T07:55:03.430Z,100.00
2023-08-13T07:57:32.000Z,100.00
2023-08-13T07:59:59.056Z,100.00
2023-08-13T08:02:25.863Z,100.00
2023-08-13T08:04:52.928Z,100.00
2023-08-13T08:07:20.064Z,100.00
2023-08-13T08:09:46.853Z,100.00
2023-08-13T08:12:14.008Z,100.00
2023-08-13T08:14:41.160Z,100.00
2023-08-13T08:17:08.823Z,100.00
2023-08-13T08:19:35.653Z,100.00
2023-08-13T08:22:02.406Z,100.00
2023-08-13T08:24:29.364Z,100.00
2023-08-13T08:26:56.112Z,100.00
2023-08-13T08:29:22.897Z,100.00
2023-08-13T08:31:49.686Z,100.00
2023-08-13T08:34:16.626Z,100.00
2023-08-13T08:36:43.496Z,100.00
2023-08-13T08:39:10.326Z,100.00
2023-08-13T08:41:37.902Z,100.00
2023-08-13T08:44:08.582Z,100.00
2023-08-13T08:46:38.103Z,100.00
2023-08-13T08:49:05.090Z,100.00
2023-08-13T08:51:32.785Z,100.00
2023-08-13T08:54:00.272Z,100.00
2023-08-13T08:56:27.420Z,100.00
2023-08-13T08:58:54.325Z,100.00
2023-08-13T09:01:21.128Z,100.00
2023-08-13T09:03:48.006Z,100.00
2023-08-13T09:06:22.016Z,100.00
2023-08-13T09:08:50.512Z,100.00
2023-08-13T09:11:19.412Z,100.00
2023-08-13T09:13:50.562Z,100.00
2023-08-13T09:16:17.990Z,100.00
2023-08-13T09:18:44.807Z,100.00
2023-08-13T09:21:11.597Z,100.00
2023-08-13T09:23:39.642Z,100.00
2023-08-13T09:26:06.589Z,100.00
2023-08-13T09:28:33.685Z,100.00
2023-08-13T09:31:01.205Z,100.00
2023-08-13T09:33:28.490Z,100.00
2023-08-13T09:35:55.342Z,100.00
2023-08-13T09:38:22.178Z,100.00
2023-08-13T09:40:49.240Z,100.00
2023-08-13T09:43:20.123Z,100.00
2023-08-13T09:45:48.884Z,100.00
2023-08-13T09:48:19.942Z,100.00
2023-08-13T09:50:50.206Z,100.00
2023-08-13T09:53:21.809Z,100.00
2023-08-13T09:55:55.782Z,100.00
2023-08-13T09:58:22.685Z,100.00
2023-08-13T10:00:50.999Z,89.01
2023-08-13T10:03:19.500Z,81.91
2023-08-13T10:05:46.931Z,81.01
2023-08-13T10:08:13.887Z,77.03
2023-08-13T10:10:42.164Z,76.19
2023-08-13T10:13:09.010Z,76.25
2023-08-13T10:15:37.461Z,77.07
2023-08-13T10:18:05.280Z,77.40
2023-08-13T10:20:32.067Z,75.98
2023-08-13T10:23:02.511Z,73.20
2023-08-13T10:25:35.773Z,74.55
2023-08-13T10:28:38.121Z,75.16
2023-08-13T10:31:40.600Z,74.92
2023-08-13T10:34:14.162Z,71.42
2023-08-13T10:36:55.263Z,71.37
2023-08-13T10:39:32.576Z,71.09
2023-08-13T10:41:59.555Z,72.18
2023-08-13T10:44:30.458Z,67.91
2023-08-13T10:46:58.533Z,67.14
2023-08-13T10:49:28.858Z,68.39
2023-08-13T10:52:01.530Z,69.16
2023-08-13T10:54:28.393Z,68.44
2023-08-13T10:56:59.642Z,68.54
2023-08-13T10:59:39.074Z,65.24
2023-08-13T11:02:26.252Z,65.25
2023-08-13T11:04:54.566Z,64.61
2023-08-13T11:07:22.152Z,63.04
2023-08-13T11:09:49.943Z,62.39
2023-08-13T11:12:17.048Z,63.07
2023-08-13T11:14:44.118Z,60.44
2023-08-13T11:17:10.939Z,61.31
2023-08-13T11:19:37.661Z,58.51
2023-08-13T11:22:05.156Z,51.24
2023-08-13T11:24:35.453Z,49.02
2023-08-13T11:27:04.731Z,47.28
2023-08-13T11:29:32.155Z,47.83
2023-08-13T11:31:59.400Z,47.60
2023-08-13T11:34:26.182Z,48.13
2023-08-13T11:36:53.497Z,48.60
2023-08-13T11:39:21.143Z,46.60
2023-08-13T11:41:47.908Z,47.35
2023-08-13T11:44:14.734Z,46.75
2023-08-13T11:46:55.138Z,46.79
2023-08-13T11:49:22.233Z,47.80
2023-08-13T11:51:50.184Z,46.34
2023-08-13T11:54:20.655Z,47.31
2023-08-13T11:56:51.744Z,47.84
2023-08-13T11:59:23.883Z,48.47
2023-08-13T12:01:53.784Z,45.90
2023-08-13T12:04:22.613Z,48.95
2023-08-13T12:06:53.112Z,48.68
2023-08-13T12:09:20.377Z,48.25
2023-08-13T12:11:47.364Z,52.45
2023-08-13T12:14:14.213Z,49.30
2023-08-13T12:16:40.994Z,49.47
2023-08-13T12:19:08.149Z,50.75
2023-08-13T12:21:36.358Z,51.07
2023-08-13T12:24:07.204Z,51.44
2023-08-13T12:26:34.185Z,54.36
2023-08-13T12:29:01.256Z,52.33
2023-08-13T12:31:28.266Z,52.42
2023-08-13T12:33:55.279Z,52.33
2023-08-13T12:36:22.224Z,53.00
2023-08-13T12:38:49.333Z,52.73
2023-08-13T12:41:19.062Z,52.92
2023-08-13T12:43:51.160Z,53.46
2023-08-13T12:46:17.869Z,53.79
2023-08-13T12:48:44.771Z,53.53
2023-08-13T12:51:11.714Z,51.48
2023-08-13T12:53:39.798Z,52.83
2023-08-13T12:56:06.638Z,53.71
2023-08-13T12:58:34.300Z,53.91
2023-08-13T13:01:01.564Z,52.46
2023-08-13T13:03:29.873Z,50.08
2023-08-13T13:05:57.030Z,50.26
2023-08-13T13:08:25.977Z,52.19
2023-08-13T13:10:54.258Z,51.35
2023-08-13T13:13:21.213Z,52.40
2023-08-13T13:15:48.103Z,52.81
2023-08-13T13:18:14.958Z,53.16
2023-08-13T13:20:41.721Z,52.17
2023-08-13T13:23:08.564Z,51.11
2023-08-13T13:25:35.587Z,51.97
2023-08-13T13:28:02.451Z,51.90
2023-08-13T13:30:33.639Z,51.87
2023-08-13T13:33:05.916Z,51.16
2023-08-13T13:35:32.908Z,50.97
2023-08-13T13:37:59.644Z,51.78
2023-08-13T13:40:27.117Z,53.09
2023-08-13T13:42:55.954Z,55.07
2023-08-13T13:45:23.865Z,54.55
2023-08-13T13:47:50.887Z,51.69
2023-08-13T13:50:18.494Z,49.27
2023-08-13T13:52:45.694Z,50.24
2023-08-13T13:55:12.441Z,51.34
2023-08-13T13:57:39.230Z,51.31
2023-08-13T14:00:09.527Z,53.04
2023-08-13T14:02:36.536Z,54.42
2023-08-13T14:05:04.138Z,54.67
2023-08-13T14:07:31.197Z,54.15
2023-08-13T14:09:58.215Z,54.22
2023-08-13T14:12:24.982Z,56.50
2023-08-13T14:14:51.760Z,56.97
2023-08-13T14:17:18.659Z,51.80
2023-08-13T14:19:45.481Z,55.32
2023-08-13T14:22:12.329Z,58.55
2023-08-13T14:24:39.207Z,56.67
2023-08-13T14:27:06.096Z,56.14
2023-08-13T14:29:33.294Z,56.63
2023-08-13T14:32:00.048Z,54.11
2023-08-13T14:34:27.053Z,56.15
2023-08-13T14:36:54.017Z,56.49
2023-08-13T14:39:20.781Z,56.55
2023-08-13T14:41:47.739Z,55.49
2023-08-13T14:44:14.497Z,53.73
2023-08-13T14:46:41.308Z,53.91
2023-08-13T14:49:08.037Z,55.96
2023-08-13T14:51:34.884Z,56.80
2023-08-13T14:54:02.051Z,56.31
2023-08-13T14:56:28.888Z,53.29
2023-08-13T14:58:55.587Z,51.63
2023-08-13T15:01:22.326Z,55.48
2023-08-13T15:03:49.286Z,58.62
2023-08-13T15:06:16.645Z,57.70
2023-08-13T15:08:44.839Z,58.66
2023-08-13T15:11:11.761Z,58.87
2023-08-13T15:13:38.541Z,58.77
2023-08-13T15:16:05.428Z,58.45
2023-08-13T15:18:32.206Z,58.02
2023-08-13T15:20:58.976Z,57.72
2023-08-13T15:23:26.046Z,58.24
2023-08-13T15:25:56.483Z,56.99
2023-08-13T15:28:23.880Z,57.43
2023-08-13T15:30:58.354Z,56.85
2023-08-13T15:33:25.640Z,57.80
2023-08-13T15:35:55.324Z,57.79
2023-08-13T15:38:25.613Z,56.42
2023-08-13T15:40:52.544Z,54.28
2023-08-13T15:43:19.299Z,55.23
2023-08-13T15:45:46.199Z,52.63
2023-08-13T15:48:13.108Z,54.74
2023-08-13T15:50:40.024Z,55.93
2023-08-13T15:53:06.768Z,56.71
2023-08-13T15:55:33.551Z,57.50
2023-08-13T15:58:00.353Z,58.54
2023-08-13T16:00:27.177Z,55.77
2023-08-13T16:02:54.480Z,55.19
2023-08-13T16:05:21.310Z,53.02
2023-08-13T16:07:48.700Z,53.35
2023-08-13T16:10:15.752Z,55.97
2023-08-13T16:12:42.640Z,56.23
2023-08-13T16:15:11.474Z,57.18
2023-08-13T16:17:45.833Z,57.98
2023-08-13T16:20:14.318Z,58.91
2023-08-13T16:22:43.549Z,61.40
2023-08-13T16:25:10.997Z,61.40
2023-08-13T16:27:38.053Z,61.40
2023-08-13T16:30:05.842Z,60.87
2023-08-13T16:32:33.578Z,62.64
2023-08-13T16:35:00.992Z,61.70
2023-08-13T16:37:27.740Z,59.75
2023-08-13T16:39:54.598Z,59.47
2023-08-13T16:42:21.465Z,58.81
2023-08-13T16:44:48.510Z,58.84
2023-08-13T16:47:16.667Z,58.62
2023-08-13T16:49:43.817Z,57.80
2023-08-13T16:52:10.564Z,59.20
2023-08-13T16:54:37.222Z,58.76
2023-08-13T16:57:04.007Z,59.52
2023-08-13T16:59:30.736Z,61.20
2023-08-13T17:01:57.510Z,61.71
2023-08-13T17:04:24.284Z,62.36
2023-08-13T17:06:51.028Z,62.89
2023-08-13T17:09:17.871Z,64.17
2023-08-13T17:11:44.686Z,64.51
2023-08-13T17:14:11.563Z,65.25
2023-08-13T17:16:38.391Z,66.78
2023-08-13T17:19:05.203Z,68.75
2023-08-13T17:21:31.943Z,68.67
2023-08-13T17:23:59.096Z,68.25
2023-08-13T17:26:26.589Z,71.09
2023-08-13T17:28:53.927Z,73.39
2023-08-13T17:31:20.655Z,76.32
2023-08-13T17:33:47.456Z,75.95
2023-08-13T17:36:14.185Z,78.15
2023-08-13T17:38:41.244Z,81.96
2023-08-13T17:41:08.063Z,88.31
2023-08-13T17:43:35.018Z,92.49
2023-08-13T17:46:01.817Z,93.53
2023-08-13T17:48:28.892Z,96.79
2023-08-13T17:50:55.774Z,96.48
2023-08-13T17:53:23.105Z,96.06
2023-08-13T17:55:49.879Z,100.00
2023-08-13T17:58:16.655Z,100.00
2023-08-13T18:00:43.470Z,100.00
2023-08-13T18:03:10.350Z,100.00
2023-08-13T18:05:37.539Z,100.00
2023-08-13T18:08:15.413Z,100.00
2023-08-13T18:10:43.570Z,100.00
2023-08-13T18:13:10.467Z,100.00
2023-08-13T18:15:37.231Z,100.00
2023-08-13T18:18:07.016Z,100.00
2023-08-13T18:20:33.911Z,100.00
2023-08-13T18:23:00.677Z,100.00
2023-08-13T18:25:27.416Z,100.00
2023-08-13T18:27:54.149Z,100.00
2023-08-13T18:30:20.912Z,100.00
2023-08-13T18:32:48.197Z,100.00
2023-08-13T18:35:15.264Z,100.00
2023-08-13T18:37:42.026Z,100.00
2023-08-13T18:40:12.072Z,100.00
2023-08-13T18:42:45.357Z,100.00
2023-08-13T18:45:13.294Z,100.00
2023-08-13T18:47:40.173Z,100.00
2023-08-13T18:50:07.681Z,100.00
2023-08-13T18:52:34.523Z,100.00
2023-08-13T18:55:01.283Z,100.00
2023-08-13T18:57:28.036Z,100.00
2023-08-13T18:59:54.890Z,100.00
2023-08-13T19:02:21.691Z,100.00
2023-08-13T19:04:48.530Z,100.00
2023-08-13T19:07:15.456Z,100.00
2023-08-13T19:09:42.326Z,100.00
2023-08-13T19:12:09.278Z,100.00
2023-08-13T19:14:36.193Z,100.00
2023-08-13T19:17:03.004Z,100.00
2023-08-13T19:19:29.864Z,100.00
2023-08-13T19:21:56.586Z,100.00
2023-08-13T19:24:23.408Z,100.00
2023-08-13T19:26:50.185Z,100.00
2023-08-13T19:29:16.934Z,100.00
2023-08-13T19:31:43.698Z,100.00
2023-08-13T19:34:10.517Z,100.00
2023-08-13T19:36:37.199Z,100.00
2023-08-13T19:39:05.538Z,100.00
2023-08-13T19:41:32.278Z,100.00
2023-08-13T19:43:58.957Z,100.00
2023-08-13T19:46:25.879Z,100.00
2023-08-13T19:48:52.685Z,100.00
2023-08-13T19:51:19.520Z,100.00
2023-08-13T19:53:46.531Z,100.00
2023-08-13T19:56:13.322Z,100.00
2023-08-13T19:58:40.147Z,100.00
2023-08-13T20:01:07.466Z,100.00
2023-08-13T20:03:34.409Z,100.00
2023-08-13T20:06:01.273Z,100.00
2023-08-13T20:08:28.103Z,100.00
2023-08-13T20:10:54.940Z,100.00
2023-08-13T20:13:21.755Z,100.00
2023-08-13T20:15:49.207Z,100.00
2023-08-13T20:18:16.233Z,100.00
2023-08-13T20:20:42.951Z,100.00
2023-08-13T20:23:09.727Z,100.00
2023-08-13T20:25:37.005Z,100.00
2023-08-13T20:28:04.092Z,100.00
2023-08-13T20:30:30.896Z,100.00
2023-08-13T20:32:57.817Z,100.00
2023-08-13T20:35:24.652Z,100.00
2023-08-13T20:37:51.491Z,100.00
2023-08-13T20:40:18.265Z,100.00
2023-08-13T20:42:46.118Z,100.00
2023-08-13T20:45:12.957Z,100.00
2023-08-13T20:47:40.034Z,100.00
2023-08-13T20:50:17.858Z,100.00
2023-08-13T20:52:45.526Z,100.00
2023-08-13T20:55:12.361Z,100.00
2023-08-13T20:57:39.121Z,100.00
2023-08-13T21:00:07.681Z,100.00
2023-08-13T21:02:34.524Z,100.00
2023-08-13T21:05:01.275Z,100.00
2023-08-13T21:07:28.101Z,100.00
2023-08-13T21:09:54.843Z,100.00
2023-08-13T21:12:21.591Z,100.00
2023-08-13T21:14:48.290Z,100.00
2023-08-13T21:17:15.180Z,100.00
2023-08-13T21:19:42.235Z,100.00
2023-08-13T21:22:08.945Z,100.00
2023-08-13T21:24:35.702Z,100.00
2023-08-13T21:27:02.477Z,100.00
2023-08-13T21:29:29.249Z,100.00
2023-08-13T21:31:57.316Z,100.00
2023-08-13T21:34:24.153Z,100.00
2023-08-13T21:36:50.883Z,100.00
2023-08-13T21:39:18.120Z,100.00
2023-08-13T21:41:44.926Z,100.00
2023-08-13T21:44:11.646Z,100.00
2023-08-13T21:46:38.469Z,100.00
2023-08-13T21:49:05.254Z,100.00
2023-08-13T21:51:31.989Z,100.00
2023-08-13T21:53:58.827Z,100.00
2023-08-13T21:56:25.859Z,100.00
2023-08-13T21:58:52.565Z,100.00
2023-08-13T22:01:20.024Z,100.00
2023-08-13T22:03:46.933Z,100.00
2023-08-13T22:06:13.823Z,100.00
2023-08-13T22:08:40.620Z,100.00
2023-08-13T22:11:07.582Z,100.00
2023-08-13T22:13:34.380Z,100.00
2023-08-13T22:16:01.142Z,100.00
2023-08-13T22:18:28.566Z,100.00
2023-08-13T22:20:55.355Z,100.00
2023-08-13T22:23:22.095Z,100.00
2023-08-13T22:25:48.840Z,100.00
2023-08-13T22:28:15.580Z,100.00
2023-08-13T22:30:42.297Z,100.00
2023-08-13T22:33:09.102Z,100.00
2023-08-13T22:35:35.828Z,100.00
2023-08-13T22:38:04.456Z,100.00
2023-08-13T22:40:31.273Z,100.00
2023-08-13T22:42:58.014Z,100.00
2023-08-13T22:45:25.038Z,100.00
2023-08-13T22:47:51.899Z,100.00
2023-08-13T22:50:18.839Z,100.00
2023-08-13T22:52:45.613Z,100.00
2023-08-13T22:55:12.441Z,100.00
2023-08-13T22:57:39.498Z,100.00
2023-08-13T23:00:08.399Z,100.00
2023-08-13T23:02:35.541Z,100.00
2023-08-13T23:05:02.505Z,100.00
2023-08-13T23:07:29.202Z,100.00
2023-08-13T23:09:56.194Z,100.00
2023-08-13T23:12:23.008Z,100.00
2023-08-13T23:14:49.872Z,100.00
2023-08-13T23:17:16.887Z,100.00
2023-08-13T23:19:44.222Z,100.00
2023-08-13T23:22:11.074Z,100.00
2023-08-13T23:24:37.887Z,100.00
2023-08-13T23:27:05.255Z,100.00
2023-08-13T23:29:32.121Z,100.00
2023-08-13T23:31:58.980Z,100.00
2023-08-13T23:34:27.880Z,100.00
2023-08-13T23:36:54.742Z,100.00
2023-08-13T23:39:21.609Z,100.00
2023-08-13T23:41:52.070Z,100.00
2023-08-13T23:44:19.012Z,100.00
2023-08-13T23:46:45.868Z,100.00
2023-08-13T23:49:12.642Z,100.00
2023-08-13T23:51:39.551Z,100.00
2023-08-13T23:54:06.387Z,100.00
2023-08-13T23:56:33.194Z,100.00
2023-08-13T23:58:59.978Z,100.00
